Terminal Aerodrome Forecast
Issued by NWS

Home | Current Version | Previous Version | Text Only | Print | Product List | Glossary On
Versions: 1 2 3 4 5 6 7 8 9 10 11 12 13 14 15
000
FTUS45 KFGZ 011740
TAFPGA
TAF
KPGA 011740Z 0118/0218 VRB06KT P6SM SCT080 BKN110
      TEMPO 0120/0124 VRB15G25KT 4SM TSRA BKN060CB
     FM020200 VRB04KT P6SM FEW080 SCT110=

USA.gov is the U.S. government's official web portal to all federal, state and local government web resources and services.